createdAt,value
2023-04-17T00:00:58.197Z,99.90
2023-04-17T00:06:00.290Z,99.90
2023-04-17T00:11:07.846Z,99.90
2023-04-17T00:16:12.728Z,99.90
2023-04-17T00:21:14.847Z,99.90
2023-04-17T00:26:16.937Z,99.90
2023-04-17T00:31:19.643Z,99.90
2023-04-17T00:36:21.797Z,99.90
2023-04-17T00:41:23.912Z,99.90
2023-04-17T00:46:26.156Z,99.90
2023-04-17T00:51:28.497Z,99.90
2023-04-17T00:56:30.958Z,99.90
2023-04-17T01:01:33.073Z,99.90
2023-04-17T01:06:35.298Z,99.90
2023-04-17T01:11:37.489Z,99.90
2023-04-17T01:16:42.171Z,99.90
2023-04-17T01:21:44.416Z,99.90
2023-04-17T01:26:46.680Z,99.90
2023-04-17T01:31:50.398Z,99.90
2023-04-17T01:36:52.794Z,99.90
2023-04-17T01:41:54.982Z,99.90
2023-04-17T01:46:57.066Z,99.90
2023-04-17T01:51:59.179Z,99.90
2023-04-17T01:57:01.793Z,99.90
2023-04-17T02:02:03.994Z,99.90
2023-04-17T02:07:06.191Z,99.90
2023-04-17T02:12:08.377Z,99.90
2023-04-17T02:17:10.730Z,99.90
2023-04-17T02:22:12.793Z,99.90
2023-04-17T02:27:14.880Z,99.90
2023-04-17T02:32:18.905Z,99.90
2023-04-17T02:37:21.388Z,99.90
2023-04-17T02:42:24.146Z,99.90
2023-04-17T02:47:26.523Z,99.90
2023-04-17T02:52:30.336Z,99.90
2023-04-17T02:57:33.125Z,99.90
2023-04-17T03:02:36.388Z,99.90
2023-04-17T03:07:38.744Z,99.90
2023-04-17T03:12:41.160Z,99.90
2023-04-17T03:17:43.347Z,99.90
2023-04-17T03:22:45.729Z,99.90
2023-04-17T03:27:48.137Z,99.90
2023-04-17T03:32:53.001Z,99.90
2023-04-17T03:37:55.157Z,99.90
2023-04-17T03:42:58.396Z,99.90
2023-04-17T03:48:01.104Z,99.90
2023-04-17T03:53:04.454Z,99.90
2023-04-17T03:58:08.047Z,99.90
2023-04-17T04:03:10.801Z,99.90
2023-04-17T04:08:16.733Z,99.90
2023-04-17T04:13:22.804Z,99.90
2023-04-17T04:18:32.402Z,99.90
2023-04-17T04:23:35.095Z,99.90
2023-04-17T04:28:38.275Z,99.90
2023-04-17T04:33:44.997Z,99.90
2023-04-17T04:38:50.518Z,99.90
2023-04-17T04:44:01.336Z,99.90
2023-04-17T04:49:04.319Z,99.90
2023-04-17T04:54:08.016Z,99.90
2023-04-17T04:59:18.321Z,99.90
2023-04-17T05:04:28.402Z,99.90
2023-04-17T05:09:35.695Z,99.90
2023-04-17T05:14:39.498Z,99.90
2023-04-17T05:19:43.657Z,99.90
2023-04-17T05:24:46.333Z,99.90
2023-04-17T05:29:48.559Z,99.90
2023-04-17T05:34:51.162Z,99.90
2023-04-17T05:39:57.390Z,99.90
2023-04-17T05:44:59.537Z,99.90
2023-04-17T05:50:01.767Z,99.90
2023-04-17T05:55:05.165Z,99.90
2023-04-17T06:00:13.137Z,99.90
2023-04-17T06:05:21.728Z,99.90
2023-04-17T06:10:24.095Z,99.90
2023-04-17T06:15:26.656Z,99.90
2023-04-17T06:20:29.072Z,99.90
2023-04-17T06:25:31.466Z,99.90
2023-04-17T06:30:33.629Z,99.90
2023-04-17T06:35:36.663Z,99.90
2023-04-17T06:40:59.333Z,99.90
2023-04-17T06:46:01.601Z,99.90
2023-04-17T06:51:08.704Z,99.90
2023-04-17T06:56:10.940Z,99.90
2023-04-17T07:01:15.944Z,99.90
2023-04-17T07:06:19.474Z,99.90
2023-04-17T07:11:21.610Z,99.90
2023-04-17T07:16:23.801Z,99.90
2023-04-17T07:21:26.966Z,99.90
2023-04-17T07:26:29.023Z,99.90
2023-04-17T07:31:31.274Z,99.90
2023-04-17T07:36:33.482Z,99.90
2023-04-17T07:41:35.527Z,99.90
2023-04-17T07:46:37.729Z,99.90
2023-04-17T07:51:41.362Z,99.90
2023-04-17T07:56:46.701Z,99.90
2023-04-17T08:01:49.766Z,99.90
2023-04-17T08:06:52.296Z,99.90
2023-04-17T08:11:58.071Z,99.90
2023-04-17T08:17:00.940Z,99.90
2023-04-17T08:22:06.116Z,99.90
2023-04-17T08:27:08.334Z,99.90
2023-04-17T08:32:13.897Z,99.90
2023-04-17T08:37:17.037Z,99.90
2023-04-17T08:42:19.258Z,99.90
2023-04-17T08:47:21.497Z,99.90
2023-04-17T08:52:23.671Z,99.90
2023-04-17T08:57:25.806Z,99.90
2023-04-17T09:02:28.059Z,99.90
2023-04-17T09:07:30.819Z,99.90
2023-04-17T09:12:32.910Z,99.90
2023-04-17T09:17:37.605Z,99.90
2023-04-17T09:22:40.986Z,99.90
2023-04-17T09:27:43.219Z,99.90
2023-04-17T09:32:45.367Z,99.90
2023-04-17T09:37:48.987Z,99.90
2023-04-17T09:43:01.314Z,99.90
2023-04-17T09:48:10.990Z,99.90
2023-04-17T09:53:15.893Z,99.90
2023-04-17T09:58:18.615Z,99.90
2023-04-17T10:03:21.263Z,99.90
2023-04-17T10:08:23.633Z,99.90
2023-04-17T10:13:27.934Z,99.90
2023-04-17T10:18:30.100Z,99.90
2023-04-17T10:23:34.139Z,99.90
2023-04-17T10:28:50.517Z,99.90
2023-04-17T10:33:55.707Z,99.90
2023-04-17T10:39:13.363Z,99.90
2023-04-17T10:44:17.792Z,99.90
2023-04-17T10:49:21.773Z,99.90
2023-04-17T10:54:23.827Z,99.90
2023-04-17T10:59:30.157Z,99.70
2023-04-17T11:04:34.370Z,99.00
2023-04-17T11:09:36.936Z,99.50
2023-04-17T11:14:42.642Z,99.70
2023-04-17T11:19:45.850Z,99.60
2023-04-17T11:24:51.777Z,99.90
2023-04-17T11:29:53.932Z,99.40
2023-04-17T11:34:56.572Z,98.80
2023-04-17T11:40:08.196Z,98.50
2023-04-17T11:45:11.105Z,97.90
2023-04-17T11:50:16.120Z,97.40
2023-04-17T11:55:18.308Z,97.60
2023-04-17T12:00:26.095Z,97.80
2023-04-17T12:05:30.110Z,98.10
2023-04-17T12:10:44.556Z,97.60
2023-04-17T12:15:46.765Z,97.30
2023-04-17T12:20:49.039Z,98.20
2023-04-17T12:25:51.149Z,97.00
2023-04-17T12:30:53.280Z,96.20
2023-04-17T12:35:55.414Z,96.60
2023-04-17T12:40:57.804Z,97.30
2023-04-17T12:45:59.987Z,97.20
2023-04-17T12:51:02.533Z,97.10
2023-04-17T12:56:04.920Z,96.90
2023-04-17T13:01:06.999Z,96.20
2023-04-17T13:06:09.160Z,95.60
2023-04-17T13:11:11.494Z,95.30
2023-04-17T13:16:14.402Z,95.90
2023-04-17T13:21:16.614Z,96.00
2023-04-17T13:26:20.428Z,96.80
2023-04-17T13:31:24.703Z,97.20
2023-04-17T13:36:27.408Z,97.60
2023-04-17T13:41:29.467Z,97.50
2023-04-17T13:46:33.074Z,98.20
2023-04-17T13:51:37.957Z,97.90
2023-04-17T13:56:40.270Z,97.80
2023-04-17T14:01:42.373Z,97.70
2023-04-17T14:06:47.011Z,97.10
2023-04-17T14:11:49.111Z,97.80
2023-04-17T14:16:51.341Z,97.50
2023-04-17T14:21:53.381Z,97.30
2023-04-17T14:26:57.526Z,97.30
2023-04-17T14:31:59.629Z,97.20
2023-04-17T14:37:01.675Z,95.70
2023-04-17T14:42:03.801Z,93.80
2023-04-17T14:47:06.096Z,93.50
2023-04-17T14:52:08.439Z,92.50
2023-04-17T14:57:10.692Z,92.30
2023-04-17T15:02:12.893Z,91.90
2023-04-17T15:07:14.987Z,91.70
2023-04-17T15:12:17.064Z,91.30
2023-04-17T15:17:19.360Z,90.70
2023-04-17T15:22:21.661Z,89.50
2023-04-17T15:27:24.208Z,90.00
2023-04-17T15:32:26.915Z,87.70
2023-04-17T15:37:29.560Z,88.40
2023-04-17T15:42:31.623Z,87.10
2023-04-17T15:47:33.813Z,88.60
2023-04-17T15:52:36.376Z,87.10
2023-04-17T15:57:38.987Z,85.50
2023-04-17T16:02:42.294Z,85.40
2023-04-17T16:07:45.057Z,86.30
2023-04-17T16:12:47.240Z,85.10
2023-04-17T16:17:49.463Z,86.00
2023-04-17T16:22:51.593Z,87.70
2023-04-17T16:27:53.756Z,86.60
2023-04-17T16:32:55.863Z,87.50
2023-04-17T16:37:57.932Z,87.60
2023-04-17T16:43:00.107Z,86.30
2023-04-17T16:48:02.224Z,85.90
2023-04-17T16:53:04.455Z,86.30
2023-04-17T16:58:06.717Z,85.60
2023-04-17T17:03:09.081Z,85.20
2023-04-17T17:08:13.091Z,86.80
2023-04-17T17:13:15.217Z,88.90
2023-04-17T17:18:17.281Z,90.10
2023-04-17T17:23:19.405Z,90.00
2023-04-17T17:28:21.504Z,89.40
2023-04-17T17:33:23.528Z,89.40
2023-04-17T17:38:28.605Z,90.30
2023-04-17T17:43:30.794Z,90.70
2023-04-17T17:48:34.532Z,91.10
2023-04-17T17:53:36.644Z,91.30
2023-04-17T17:58:38.723Z,91.70
2023-04-17T18:03:41.032Z,92.70
2023-04-17T18:08:43.224Z,93.50
2023-04-17T18:13:45.326Z,94.10
2023-04-17T18:18:47.398Z,94.30
2023-04-17T18:23:49.427Z,94.40
2023-04-17T18:28:51.652Z,95.10
2023-04-17T18:33:53.832Z,97.00
2023-04-17T18:38:55.921Z,98.20
2023-04-17T18:43:58.010Z,98.70
2023-04-17T18:49:00.373Z,99.30
2023-04-17T18:54:02.971Z,99.90
2023-04-17T18:59:05.126Z,99.90
2023-04-17T19:04:07.219Z,99.90
2023-04-17T19:09:09.496Z,99.90
2023-04-17T19:14:11.862Z,99.90
2023-04-17T19:19:15.421Z,99.90
2023-04-17T19:24:17.733Z,99.90
2023-04-17T19:29:19.999Z,99.90
2023-04-17T19:34:22.052Z,99.90
2023-04-17T19:39:27.353Z,99.90
2023-04-17T19:44:29.490Z,99.90
2023-04-17T19:49:31.661Z,99.90
2023-04-17T19:54:33.796Z,99.90
2023-04-17T19:59:35.837Z,99.90
2023-04-17T20:04:37.880Z,99.90
2023-04-17T20:09:39.944Z,99.90
2023-04-17T20:14:42.020Z,99.90
2023-04-17T20:19:44.313Z,99.90
2023-04-17T20:24:48.650Z,99.90
2023-04-17T20:29:50.836Z,99.90
2023-04-17T20:34:52.951Z,99.90
2023-04-17T20:39:55.024Z,99.90
2023-04-17T20:44:57.068Z,99.90
2023-04-17T20:49:59.126Z,99.90
2023-04-17T20:55:01.878Z,99.90
2023-04-17T21:00:06.446Z,99.90
2023-04-17T21:05:09.222Z,99.90
2023-04-17T21:10:11.604Z,99.90
2023-04-17T21:15:13.738Z,99.90
2023-04-17T21:20:16.030Z,99.90
2023-04-17T21:25:18.131Z,99.90
2023-04-17T21:30:20.710Z,99.90
2023-04-17T21:35:22.871Z,99.90
2023-04-17T21:40:26.342Z,99.90
2023-04-17T21:45:28.493Z,99.90
2023-04-17T21:50:30.827Z,99.90
2023-04-17T21:55:35.077Z,99.90
2023-04-17T22:00:37.143Z,99.90
2023-04-17T22:05:40.300Z,99.90
2023-04-17T22:10:42.426Z,99.90
2023-04-17T22:15:45.032Z,99.90
2023-04-17T22:20:47.154Z,99.90
2023-04-17T22:25:49.231Z,99.90
2023-04-17T22:30:54.565Z,99.90
2023-04-17T22:35:56.688Z,99.90
2023-04-17T22:40:58.781Z,99.90
2023-04-17T22:46:00.921Z,99.90
2023-04-17T22:51:03.373Z,99.90
2023-04-17T22:56:06.411Z,99.90
2023-04-17T23:01:08.869Z,99.90
2023-04-17T23:06:11.346Z,99.90
2023-04-17T23:11:13.446Z,99.90
2023-04-17T23:16:16.696Z,99.90
2023-04-17T23:21:19.963Z,99.90
2023-04-17T23:26:22.280Z,99.90
2023-04-17T23:31:24.529Z,99.90
2023-04-17T23:36:26.941Z,99.90
2023-04-17T23:41:29.725Z,99.90
2023-04-17T23:46:31.891Z,99.90
2023-04-17T23:51:34.020Z,99.90
2023-04-17T23:56:36.243Z,99.90
